Time;durP1;ratioP1;P1;durP2;ratioP2;P2;SDS_P1;SDS_P2;PMS_P1;PMS_P2;Temp;Humidity;BMP_temperature;BMP_pressure;BME280_temperature;BME280_humidity;BME280_pressure;Samples;Min_cycle;Max_cycle;Signal;HPM_P1;HPM_P2
2023/06/08 00:02:28;;;;;;;2.85;2.65;;;17.60;99.90;;;;;;5061164;28;20229;-72
2023/06/08 00:04:57;;;;;;;2.88;2.67;;;17.60;99.90;;;;;;5045854;28;20225;-72
2023/06/08 00:07:24;;;;;;;2.95;2.75;;;17.60;99.90;;;;;;5060676;28;20233;-71
2023/06/08 00:09:52;;;;;;;2.90;2.70;;;17.60;99.90;;;;;;5047836;28;20252;-71
2023/06/08 00:12:19;;;;;;;2.80;2.60;;;17.60;99.90;;;;;;5056942;28;20297;-72
2023/06/08 00:14:47;;;;;;;2.83;2.63;;;17.60;99.90;;;;;;5056047;28;20219;-72
2023/06/08 00:17:14;;;;;;;3.08;2.88;;;17.70;99.90;;;;;;5058383;28;20736;-71
2023/06/08 00:19:43;;;;;;;2.80;2.60;;;17.70;99.90;;;;;;5057764;28;20241;-71
2023/06/08 00:22:12;;;;;;;2.83;2.63;;;17.70;99.90;;;;;;5045225;28;20947;-71
2023/06/08 00:24:39;;;;;;;3.08;2.88;;;17.70;99.90;;;;;;5057136;28;20222;-72
2023/06/08 00:27:07;;;;;;;2.67;2.47;;;17.80;99.90;;;;;;5060860;28;20354;-71
2023/06/08 00:29:34;;;;;;;2.92;2.72;;;17.70;99.90;;;;;;5058929;28;20202;-70
2023/06/08 00:32:01;;;;;;;2.70;2.50;;;17.70;99.90;;;;;;5044118;28;20286;-72
2023/06/08 00:34:28;;;;;;;2.80;2.60;;;17.70;99.90;;;;;;5056149;28;20644;-71
2023/06/08 00:36:56;;;;;;;2.80;2.60;;;17.60;99.90;;;;;;5059687;28;20287;-71
2023/06/08 00:39:24;;;;;;;2.90;2.70;;;17.60;99.90;;;;;;5060704;28;20228;-71
2023/06/08 00:41:52;;;;;;;2.83;2.63;;;17.60;99.90;;;;;;5057869;28;20811;-71
2023/06/08 00:44:19;;;;;;;3.00;2.72;;;17.50;99.90;;;;;;5050971;28;20678;-72
2023/06/08 00:46:48;;;;;;;3.10;2.80;;;17.50;99.90;;;;;;5060224;28;20202;-71
2023/06/08 00:49:17;;;;;;;2.90;2.70;;;17.50;99.90;;;;;;5057502;28;20259;-71
2023/06/08 00:51:44;;;;;;;2.90;2.70;;;17.40;99.90;;;;;;5060545;28;20209;-71
2023/06/08 00:54:14;;;;;;;2.65;2.45;;;17.40;99.90;;;;;;5056714;28;20245;-71
2023/06/08 00:56:48;;;;;;;2.72;2.53;;;17.40;99.90;;;;;;5059238;28;20203;-71
2023/06/08 00:59:15;;;;;;;2.60;2.40;;;17.30;99.90;;;;;;5055136;28;20249;-71
2023/06/08 01:01:44;;;;;;;2.72;2.53;;;17.30;99.90;;;;;;5059366;28;20287;-72
2023/06/08 01:04:14;;;;;;;3.20;3.00;;;17.40;99.90;;;;;;5065277;28;20214;-71
2023/06/08 01:06:48;;;;;;;2.70;2.50;;;17.40;99.90;;;;;;5061251;28;20203;-71
2023/06/08 01:09:26;;;;;;;2.97;2.78;;;17.30;99.90;;;;;;5057726;28;20286;-71
2023/06/08 01:12:09;;;;;;;3.03;2.83;;;17.30;99.90;;;;;;5045492;28;20229;-72
2023/06/08 01:14:46;;;;;;;2.63;2.42;;;17.30;99.90;;;;;;5060418;28;20229;-72
2023/06/08 01:17:18;;;;;;;2.90;2.70;;;17.30;99.90;;;;;;5046329;28;20226;-71
2023/06/08 01:20:07;;;;;;;3.33;3.03;;;17.20;99.90;;;;;;5057317;28;20267;-71
2023/06/08 01:22:51;;;;;;;3.10;2.90;;;17.20;99.90;;;;;;5059245;28;20208;-71
2023/06/08 01:25:23;;;;;;;3.10;2.90;;;17.20;99.90;;;;;;5059504;28;20880;-71
2023/06/08 01:27:52;;;;;;;2.58;2.38;;;17.20;99.90;;;;;;5062721;28;20206;-71
2023/06/08 01:30:19;;;;;;;3.15;2.95;;;17.20;99.90;;;;;;5063049;28;20190;-72
2023/06/08 01:32:46;;;;;;;3.00;2.80;;;17.20;99.90;;;;;;5044534;28;20863;-72
2023/06/08 01:35:13;;;;;;;3.47;3.17;;;17.20;99.90;;;;;;5044344;28;20310;-72
2023/06/08 01:37:46;;;;;;;2.88;2.67;;;17.20;99.90;;;;;;5058213;28;21739;-71
2023/06/08 01:40:22;;;;;;;3.08;2.88;;;17.20;99.90;;;;;;5062174;28;20309;-72
2023/06/08 01:42:52;;;;;;;2.58;2.47;;;17.20;99.90;;;;;;5059976;28;20826;-72
2023/06/08 01:45:22;;;;;;;3.30;3.00;;;17.20;99.90;;;;;;5056246;28;20310;-71
2023/06/08 01:47:54;;;;;;;3.08;2.88;;;17.10;99.90;;;;;;5061388;28;20289;-72
2023/06/08 01:50:23;;;;;;;3.10;2.90;;;17.10;99.90;;;;;;5058356;28;20271;-72
2023/06/08 01:52:50;;;;;;;3.30;3.00;;;17.10;99.90;;;;;;5061481;28;20307;-72
2023/06/08 01:55:18;;;;;;;3.10;2.90;;;17.00;99.90;;;;;;5047574;28;20226;-72
2023/06/08 01:57:45;;;;;;;3.15;2.85;;;17.00;99.90;;;;;;5042011;28;20234;-71
2023/06/08 02:00:17;;;;;;;3.10;2.90;;;17.00;99.90;;;;;;5058281;28;20978;-72
2023/06/08 02:02:44;;;;;;;3.42;3.22;;;17.00;99.90;;;;;;5044234;28;20285;-72
2023/06/08 02:05:12;;;;;;;3.10;2.90;;;17.00;99.90;;;;;;5044949;28;20218;-72
2023/06/08 02:07:40;;;;;;;3.33;3.13;;;17.00;99.90;;;;;;5045295;28;20202;-72
2023/06/08 02:10:09;;;;;;;3.28;2.97;;;16.90;99.90;;;;;;5071198;28;20225;-71
2023/06/08 02:12:36;;;;;;;3.38;3.17;;;16.90;99.90;;;;;;5078895;28;20944;-70
2023/06/08 02:15:03;;;;;;;2.92;2.72;;;16.90;99.90;;;;;;5077122;28;20224;-70
2023/06/08 02:17:33;;;;;;;3.50;3.20;;;16.90;99.90;;;;;;5074484;28;20225;-70
2023/06/08 02:20:06;;;;;;;3.15;2.70;;;16.80;99.90;;;;;;5057425;28;20215;-70
2023/06/08 02:22:33;;;;;;;3.20;3.00;;;16.80;99.90;;;;;;5067818;28;20751;-71
2023/06/08 02:25:00;;;;;;;3.15;2.95;;;16.80;99.90;;;;;;5061090;28;20730;-70
2023/06/08 02:27:27;;;;;;;3.00;2.80;;;16.80;99.90;;;;;;5058523;28;20284;-71
2023/06/08 02:29:55;;;;;;;3.25;3.05;;;16.80;99.90;;;;;;5046990;28;20205;-71
2023/06/08 02:32:22;;;;;;;3.50;3.20;;;16.80;99.90;;;;;;5055742;28;20839;-71
2023/06/08 02:34:55;;;;;;;3.33;3.10;;;16.80;99.90;;;;;;5056898;28;20254;-71
2023/06/08 02:37:23;;;;;;;3.22;2.92;;;16.80;99.90;;;;;;5055690;28;20724;-71
2023/06/08 02:39:51;;;;;;;3.10;2.90;;;16.80;99.90;;;;;;5065485;28;20264;-71
2023/06/08 02:42:19;;;;;;;3.33;3.03;;;16.80;99.90;;;;;;5064704;28;20233;-70
2023/06/08 02:44:46;;;;;;;3.75;3.10;;;16.70;99.90;;;;;;5028779;28;20211;-70
2023/06/08 02:47:13;;;;;;;3.40;3.13;;;16.70;99.90;;;;;;5056900;28;20684;-70
2023/06/08 02:49:40;;;;;;;3.17;2.97;;;16.80;99.90;;;;;;5046211;28;20803;-70
2023/06/08 02:52:09;;;;;;;4.20;2.97;;;16.80;99.90;;;;;;5060127;28;20641;-71
2023/06/08 02:54:36;;;;;;;3.30;3.10;;;16.70;99.90;;;;;;5046428;28;20307;-71
2023/06/08 02:57:03;;;;;;;3.00;2.80;;;16.70;99.90;;;;;;5059278;28;20306;-71
2023/06/08 02:59:31;;;;;;;3.42;3.13;;;16.70;99.90;;;;;;5063138;28;20230;-71
2023/06/08 03:01:58;;;;;;;3.13;2.92;;;16.70;99.90;;;;;;5061139;28;20305;-71
2023/06/08 03:04:27;;;;;;;3.55;3.25;;;16.70;99.90;;;;;;5045445;28;20226;-71
2023/06/08 03:06:55;;;;;;;3.60;3.30;;;16.70;99.90;;;;;;5045772;28;20297;-71
2023/06/08 03:09:24;;;;;;;3.53;3.22;;;16.70;99.90;;;;;;5059529;28;20285;-71
2023/06/08 03:11:52;;;;;;;3.75;3.47;;;16.70;99.90;;;;;;5057793;28;20237;-71
2023/06/08 03:14:20;;;;;;;2.80;2.60;;;16.70;99.90;;;;;;5045388;28;20699;-71
2023/06/08 03:16:48;;;;;;;3.33;3.13;;;16.70;99.90;;;;;;5057814;28;20816;-71
2023/06/08 03:19:15;;;;;;;3.50;3.20;;;16.70;99.90;;;;;;5060563;28;20294;-71
2023/06/08 03:21:42;;;;;;;3.08;2.88;;;16.70;99.90;;;;;;5058439;28;20305;-71
2023/06/08 03:24:10;;;;;;;2.72;2.53;;;16.70;99.90;;;;;;5037799;28;20225;-72
2023/06/08 03:26:38;;;;;;;3.17;2.97;;;16.70;99.90;;;;;;5061353;28;20228;-71
2023/06/08 03:29:06;;;;;;;3.60;3.35;;;16.70;99.90;;;;;;5060514;28;20199;-71
2023/06/08 03:31:36;;;;;;;3.13;2.90;;;16.70;99.90;;;;;;5060459;28;20295;-71
2023/06/08 03:34:04;;;;;;;3.42;3.05;;;16.70;99.90;;;;;;5060061;28;20652;-71
2023/06/08 03:36:33;;;;;;;3.30;3.00;;;16.70;99.90;;;;;;5058020;28;20242;-71
2023/06/08 03:39:01;;;;;;;3.75;3.42;;;16.70;99.90;;;;;;5057855;28;20206;-72
2023/06/08 03:41:29;;;;;;;3.47;3.17;;;16.70;99.90;;;;;;5059764;28;20238;-71
2023/06/08 03:43:58;;;;;;;3.47;3.17;;;16.70;99.90;;;;;;5055811;28;20277;-71
2023/06/08 03:46:25;;;;;;;3.45;3.15;;;16.60;99.90;;;;;;5043330;28;20226;-71
2023/06/08 03:48:53;;;;;;;3.30;3.10;;;16.70;99.90;;;;;;5056953;28;20203;-71
2023/06/08 03:51:21;;;;;;;3.70;3.50;;;16.60;99.90;;;;;;5053382;28;20198;-71
2023/06/08 03:53:50;;;;;;;3.15;2.95;;;16.60;99.90;;;;;;5046274;28;20218;-71
2023/06/08 03:56:17;;;;;;;3.40;3.20;;;16.60;99.90;;;;;;5061290;28;20308;-71
2023/06/08 03:58:44;;;;;;;3.53;3.22;;;16.60;99.90;;;;;;5055213;28;20237;-71
2023/06/08 04:01:13;;;;;;;3.50;3.20;;;16.60;99.90;;;;;;5060371;28;20273;-72
2023/06/08 04:03:42;;;;;;;3.55;3.25;;;16.60;99.90;;;;;;5061705;28;20226;-72
2023/06/08 04:06:09;;;;;;;3.55;3.25;;;16.70;99.90;;;;;;5058366;28;20225;-72
2023/06/08 04:08:39;;;;;;;4.13;3.83;;;16.70;99.90;;;;;;5048189;28;20639;-72
2023/06/08 04:11:07;;;;;;;3.67;3.30;;;16.70;99.90;;;;;;5052140;28;20194;-71
2023/06/08 04:13:34;;;;;;;3.83;3.53;;;16.80;99.90;;;;;;5045927;28;20228;-71
2023/06/08 04:16:03;;;;;;;3.78;3.47;;;16.80;99.90;;;;;;5055150;28;20299;-71
2023/06/08 04:18:32;;;;;;;5.35;3.92;;;16.80;99.90;;;;;;5058324;28;20261;-73
2023/06/08 04:20:59;;;;;;;3.40;3.10;;;16.90;99.90;;;;;;5059707;28;20221;-71
2023/06/08 04:23:27;;;;;;;3.90;3.60;;;16.90;99.90;;;;;;5059012;28;20210;-71
2023/06/08 04:25:54;;;;;;;3.70;3.40;;;17.00;99.90;;;;;;5046108;28;20673;-72
2023/06/08 04:28:23;;;;;;;3.38;3.17;;;17.10;99.90;;;;;;5058820;28;20958;-70
2023/06/08 04:30:50;;;;;;;3.75;3.45;;;17.20;99.90;;;;;;5062931;28;20198;-69
2023/06/08 04:33:17;;;;;;;3.67;3.38;;;17.20;99.90;;;;;;5060777;28;20296;-69
2023/06/08 04:35:45;;;;;;;3.60;3.30;;;17.30;99.90;;;;;;5041103;28;20206;-68
2023/06/08 04:38:14;;;;;;;3.30;3.10;;;17.30;99.90;;;;;;5065255;28;20206;-68
2023/06/08 04:40:45;;;;;;;3.83;3.53;;;17.40;99.90;;;;;;5063785;28;20631;-68
2023/06/08 04:43:13;;;;;;;3.72;3.42;;;17.40;99.90;;;;;;5062261;28;20347;-69
2023/06/08 04:45:43;;;;;;;3.72;3.40;;;17.50;99.90;;;;;;5060258;28;20207;-69
2023/06/08 04:48:10;;;;;;;3.67;3.38;;;17.50;99.90;;;;;;5062020;28;20206;-69
2023/06/08 04:50:38;;;;;;;3.80;3.50;;;17.60;99.90;;;;;;5061441;28;20222;-69
2023/06/08 04:53:10;;;;;;;4.00;3.65;;;17.70;99.90;;;;;;5060101;28;20194;-69
2023/06/08 04:55:38;;;;;;;4.30;3.83;;;17.80;99.90;;;;;;5060879;28;20293;-68
2023/06/08 04:58:05;;;;;;;3.88;3.58;;;17.80;99.90;;;;;;5064085;28;20622;-68
2023/06/08 05:00:32;;;;;;;3.92;3.63;;;17.90;99.90;;;;;;5062088;28;20253;-69
2023/06/08 05:02:59;;;;;;;4.07;3.67;;;18.00;99.90;;;;;;5060091;28;20843;-68
2023/06/08 05:05:26;;;;;;;3.70;3.40;;;18.10;99.90;;;;;;5067854;28;20222;-68
2023/06/08 05:07:53;;;;;;;4.05;3.75;;;18.10;99.90;;;;;;5068867;28;20202;-69
2023/06/08 05:10:22;;;;;;;4.18;3.45;;;18.10;99.90;;;;;;5068160;28;20210;-69
2023/06/08 05:12:50;;;;;;;3.72;3.42;;;18.20;99.90;;;;;;5059242;28;20218;-68
2023/06/08 05:15:18;;;;;;;3.80;3.45;;;18.30;99.90;;;;;;5047279;28;20230;-68
2023/06/08 05:17:45;;;;;;;3.70;3.40;;;18.40;99.90;;;;;;5046716;28;20265;-68
2023/06/08 05:20:13;;;;;;;3.92;3.63;;;18.50;99.90;;;;;;5062772;28;20238;-68
2023/06/08 05:22:40;;;;;;;4.00;3.60;;;18.60;99.90;;;;;;5046594;28;20317;-69
2023/06/08 05:25:08;;;;;;;4.18;3.78;;;18.70;99.90;;;;;;5061755;28;20222;-69
2023/06/08 05:27:37;;;;;;;3.80;3.50;;;18.80;99.90;;;;;;5048341;28;20926;-68
2023/06/08 05:30:05;;;;;;;4.93;4.25;;;18.80;99.90;;;;;;5049722;28;20748;-69
2023/06/08 05:32:32;;;;;;;3.92;3.63;;;18.80;99.90;;;;;;5048002;28;20292;-69
2023/06/08 05:35:00;;;;;;;4.57;4.18;;;18.80;99.90;;;;;;5064165;28;20222;-69
2023/06/08 05:37:27;;;;;;;4.88;4.43;;;18.50;99.90;;;;;;5064000;28;20336;-68
2023/06/08 05:39:54;;;;;;;5.38;4.78;;;18.40;99.90;;;;;;5058915;28;20670;-69
2023/06/08 05:42:21;;;;;;;4.38;3.97;;;18.10;99.90;;;;;;5063213;28;20650;-69
2023/06/08 05:44:50;;;;;;;4.45;4.05;;;18.00;99.90;;;;;;5059937;28;20222;-68
2023/06/08 05:47:17;;;;;;;4.90;4.40;;;18.10;99.90;;;;;;5063287;28;20233;-69
2023/06/08 05:49:45;;;;;;;3.60;3.30;;;18.30;99.90;;;;;;5059079;28;20293;-69
2023/06/08 05:52:12;;;;;;;4.38;3.97;;;18.60;99.90;;;;;;5058294;28;20289;-69
2023/06/08 05:54:39;;;;;;;4.25;3.85;;;18.90;99.90;;;;;;5059214;28;20230;-69
2023/06/08 05:57:06;;;;;;;5.53;3.92;;;19.10;99.90;;;;;;5062956;28;20734;-70
2023/06/08 05:59:33;;;;;;;4.35;4.00;;;19.20;99.90;;;;;;5062123;28;20211;-70
2023/06/08 06:02:02;;;;;;;5.90;4.35;;;19.30;99.90;;;;;;5063574;28;20275;-70
2023/06/08 06:04:29;;;;;;;4.43;4.03;;;19.40;99.90;;;;;;5056516;28;20227;-71
2023/06/08 06:06:56;;;;;;;4.07;3.75;;;19.40;99.90;;;;;;5056762;28;20226;-70
2023/06/08 06:09:23;;;;;;;4.47;4.07;;;19.50;99.90;;;;;;5060240;28;20288;-70
2023/06/08 06:11:50;;;;;;;4.93;4.53;;;19.60;99.90;;;;;;5062517;28;20256;-70
2023/06/08 06:14:17;;;;;;;4.15;3.85;;;19.60;99.90;;;;;;5046321;28;20766;-71
2023/06/08 06:16:44;;;;;;;4.88;4.47;;;19.60;99.90;;;;;;5060219;28;20289;-70
2023/06/08 06:19:13;;;;;;;5.03;4.53;;;19.70;99.90;;;;;;5060697;28;20285;-69
2023/06/08 06:21:40;;;;;;;3.78;3.47;;;19.80;99.90;;;;;;5060357;28;20241;-69
2023/06/08 06:24:08;;;;;;;4.65;4.25;;;19.80;99.90;;;;;;5048030;28;20218;-69
2023/06/08 06:26:35;;;;;;;4.97;4.57;;;19.70;99.90;;;;;;5058079;28;20202;-72
2023/06/08 06:29:03;;;;;;;6.47;4.40;;;19.40;99.90;;;;;;5060335;28;20435;-72
2023/06/08 06:31:31;;;;;;;4.55;4.15;;;19.10;99.90;;;;;;5057021;28;20229;-76
2023/06/08 06:33:57;;;;;;;4.70;4.30;;;19.10;99.90;;;;;;5057049;28;20283;-76
2023/06/08 06:36:27;;;;;;;5.25;4.75;;;19.20;99.90;;;;;;5058059;28;20675;-71
2023/06/08 06:38:54;;;;;;;5.70;4.65;;;19.40;99.90;;;;;;5062828;28;20233;-70
2023/06/08 06:41:21;;;;;;;4.68;4.28;;;19.50;99.90;;;;;;5057366;28;20214;-70
2023/06/08 06:43:48;;;;;;;4.80;4.35;;;19.60;99.90;;;;;;5044142;28;20590;-71
2023/06/08 06:46:19;;;;;;;5.00;4.60;;;19.60;99.90;;;;;;5057654;28;20302;-70
2023/06/08 06:48:46;;;;;;;5.10;4.70;;;19.60;99.90;;;;;;5059619;28;20202;-71
2023/06/08 06:51:13;;;;;;;5.10;4.60;;;19.30;99.90;;;;;;5057654;28;20289;-71
2023/06/08 06:53:42;;;;;;;4.80;4.40;;;19.10;99.90;;;;;;5062356;28;20823;-71
2023/06/08 06:56:09;;;;;;;4.75;4.40;;;19.00;99.90;;;;;;5060949;28;20285;-71
2023/06/08 06:58:36;;;;;;;5.45;4.93;;;19.30;99.90;;;;;;5060353;28;20723;-71
2023/06/08 07:01:03;;;;;;;5.60;5.05;;;19.50;99.90;;;;;;5058401;28;20293;-71
2023/06/08 07:03:31;;;;;;;5.32;4.85;;;19.50;99.90;;;;;;5058238;28;20223;-71
2023/06/08 07:05:58;;;;;;;5.05;4.65;;;19.70;99.90;;;;;;5058186;28;20728;-71
2023/06/08 07:08:26;;;;;;;5.25;4.85;;;20.00;99.90;;;;;;5057563;28;20209;-71
2023/06/08 07:10:55;;;;;;;6.25;5.43;;;20.10;99.90;;;;;;5059837;28;20218;-71
2023/06/08 07:13:22;;;;;;;5.55;4.65;;;20.30;99.90;;;;;;5059937;28;20285;-71
2023/06/08 07:15:54;;;;;;;4.35;4.05;;;20.40;99.90;;;;;;5058049;28;20918;-78
2023/06/08 07:18:21;;;;;;;5.97;5.38;;;20.60;99.90;;;;;;5056310;28;20203;-71
2023/06/08 07:20:49;;;;;;;4.95;4.55;;;20.70;99.90;;;;;;5059231;28;20206;-71
2023/06/08 07:23:16;;;;;;;5.95;4.35;;;20.70;99.90;;;;;;5046286;28;20221;-71
2023/06/08 07:25:43;;;;;;;5.35;4.85;;;20.90;99.90;;;;;;5060501;28;20207;-71
2023/06/08 07:28:12;;;;;;;6.65;5.57;;;20.90;99.90;;;;;;5055879;28;20281;-71
2023/06/08 07:30:39;;;;;;;5.82;5.32;;;21.00;99.90;;;;;;5059289;28;20285;-71
2023/06/08 07:33:06;;;;;;;7.75;5.57;;;21.10;99.90;;;;;;5059835;28;20205;-71
2023/06/08 07:35:34;;;;;;;5.03;4.63;;;21.10;99.90;;;;;;5056382;28;20238;-71
2023/06/08 07:38:01;;;;;;;5.25;4.80;;;21.20;99.90;;;;;;5056312;28;20285;-71
2023/06/08 07:40:28;;;;;;;6.28;5.32;;;21.30;99.90;;;;;;5059551;28;20299;-71
2023/06/08 07:42:55;;;;;;;5.20;4.70;;;21.30;99.90;;;;;;5056069;28;20786;-68
2023/06/08 07:45:23;;;;;;;4.88;4.47;;;21.40;99.90;;;;;;5043250;28;20313;-68
2023/06/08 07:47:51;;;;;;;5.28;4.88;;;21.40;99.90;;;;;;5061438;28;20283;-68
2023/06/08 07:50:18;;;;;;;5.68;5.18;;;21.40;99.90;;;;;;5059041;28;20230;-68
2023/06/08 07:52:45;;;;;;;6.93;5.00;;;21.50;99.90;;;;;;5058355;28;20195;-68
2023/06/08 07:55:12;;;;;;;6.80;5.53;;;21.50;99.90;;;;;;5055104;28;20313;-68
2023/06/08 07:57:40;;;;;;;5.80;5.18;;;21.50;99.90;;;;;;5055412;28;20290;-68
2023/06/08 08:00:09;;;;;;;4.88;4.47;;;21.50;99.90;;;;;;5059208;28;20260;-68
2023/06/08 08:02:37;;;;;;;5.40;4.90;;;21.70;99.90;;;;;;5060703;28;20242;-68
2023/06/08 08:05:07;;;;;;;5.82;5.32;;;21.80;99.90;;;;;;5054092;28;20842;-68
2023/06/08 08:07:35;;;;;;;6.10;5.38;;;22.00;99.90;;;;;;5067722;28;20487;-68
2023/06/08 08:10:03;;;;;;;5.40;4.90;;;22.10;99.90;;;;;;5070360;28;20690;-68
2023/06/08 08:12:30;;;;;;;5.70;4.40;;;22.20;99.90;;;;;;5054522;28;20195;-68
2023/06/08 08:14:58;;;;;;;5.32;4.85;;;22.30;99.90;;;;;;5063179;28;20250;-73
2023/06/08 08:17:25;;;;;;;5.90;5.30;;;22.40;99.90;;;;;;5056441;28;20206;-69
2023/06/08 08:19:55;;;;;;;6.22;5.38;;;22.60;99.90;;;;;;5062272;28;20285;-69
2023/06/08 08:22:22;;;;;;;5.72;5.13;;;22.70;99.90;;;;;;5054860;28;20218;-68
2023/06/08 08:24:49;;;;;;;5.53;5.03;;;22.60;99.90;;;;;;5059446;28;20703;-68
2023/06/08 08:27:16;;;;;;;6.28;5.78;;;22.70;99.90;;;;;;5044186;28;20293;-68
2023/06/08 08:29:43;;;;;;;5.47;5.03;;;22.50;99.90;;;;;;5056664;28;20520;-68
2023/06/08 08:32:11;;;;;;;5.65;5.15;;;22.60;99.90;;;;;;5055218;28;20209;-68
2023/06/08 08:34:38;;;;;;;6.47;5.35;;;22.70;99.90;;;;;;5060806;28;20249;-68
2023/06/08 08:37:07;;;;;;;5.68;5.05;;;22.70;99.90;;;;;;5053228;28;20309;-68
2023/06/08 08:39:34;;;;;;;5.97;5.38;;;22.70;99.90;;;;;;5058068;28;20661;-68
2023/06/08 08:42:06;;;;;;;5.53;5.10;;;22.70;99.90;;;;;;5051317;28;20269;-68
2023/06/08 08:44:33;;;;;;;5.88;5.35;;;22.70;99.90;;;;;;5053673;28;20350;-68
2023/06/08 08:47:02;;;;;;;5.28;4.88;;;23.00;99.90;;;;;;5056873;28;20869;-68
2023/06/08 08:49:40;;;;;;;6.25;5.50;;;23.10;99.90;;;;;;5027735;28;20712;-69
2023/06/08 08:52:09;;;;;;;5.95;5.45;;;23.20;99.90;;;;;;5050927;28;20774;-68
2023/06/08 08:54:38;;;;;;;6.00;5.40;;;23.20;99.90;;;;;;5052229;28;20233;-68
2023/06/08 08:57:08;;;;;;;5.63;4.90;;;23.30;99.90;;;;;;5048543;28;20374;-69
2023/06/08 08:59:37;;;;;;;5.93;5.30;;;23.70;99.90;;;;;;5056727;28;20284;-68
2023/06/08 09:02:05;;;;;;;5.95;5.30;;;24.10;99.90;;;;;;5055285;28;20249;-68
2023/06/08 09:04:32;;;;;;;5.82;5.35;;;24.00;99.90;;;;;;5052470;28;20986;-68
2023/06/08 09:07:00;;;;;;;5.55;4.53;;;24.10;99.90;;;;;;5056547;28;20267;-68
2023/06/08 09:09:28;;;;;;;5.95;5.07;;;24.20;99.90;;;;;;5067832;28;20332;-68
2023/06/08 09:11:59;;;;;;;7.00;5.22;;;24.20;99.90;;;;;;5053250;28;20904;-69
2023/06/08 09:14:27;;;;;;;5.28;4.80;;;24.20;99.90;;;;;;5043461;28;20588;-68
2023/06/08 09:16:58;;;;;;;5.72;5.20;;;24.20;99.90;;;;;;5054297;28;20804;-69
2023/06/08 09:19:26;;;;;;;5.90;4.85;;;24.50;99.90;;;;;;5048594;28;20722;-69
2023/06/08 09:21:53;;;;;;;5.35;4.88;;;24.70;99.90;;;;;;5056181;28;20234;-69
2023/06/08 09:24:22;;;;;;;9.35;6.32;;;24.40;99.90;;;;;;5045117;28;20953;-68
2023/06/08 09:26:53;;;;;;;5.70;5.15;;;24.30;99.90;;;;;;5059097;28;20198;-68
2023/06/08 09:29:36;;;;;;;7.13;5.60;;;24.30;99.90;;;;;;5044420;28;20198;-68
2023/06/08 09:32:05;;;;;;;10.07;5.47;;;24.30;99.90;;;;;;5056195;28;20255;-68
2023/06/08 09:34:33;;;;;;;5.13;4.72;;;24.40;99.90;;;;;;5057996;28;20217;-68
2023/06/08 09:37:10;;;;;;;5.72;5.22;;;24.50;99.90;;;;;;5059503;28;20215;-70
2023/06/08 09:39:40;;;;;;;5.40;4.63;;;24.50;99.90;;;;;;5060007;28;20215;-69
2023/06/08 09:42:09;;;;;;;5.20;4.70;;;24.70;99.90;;;;;;5057499;28;20207;-70
2023/06/08 09:44:37;;;;;;;5.43;4.85;;;25.00;99.90;;;;;;5058868;28;20695;-70
2023/06/08 09:47:23;;;;;;;4.70;4.30;;;25.20;99.90;;;;;;5048578;28;20203;-70
2023/06/08 09:49:52;;;;;;;5.50;4.85;;;25.50;99.90;;;;;;5058154;28;20203;-70
2023/06/08 09:52:21;;;;;;;5.40;4.90;;;25.50;99.90;;;;;;5055582;28;20237;-70
2023/06/08 09:54:49;;;;;;;5.20;4.72;;;25.40;99.90;;;;;;5058186;28;20275;-70
2023/06/08 09:57:20;;;;;;;4.28;3.97;;;25.50;99.90;;;;;;5058643;28;20207;-70
2023/06/08 09:59:51;;;;;;;4.85;4.40;;;25.20;99.90;;;;;;5061193;28;20226;-71
2023/06/08 10:02:22;;;;;;;4.75;4.35;;;25.20;99.90;;;;;;5057765;28;20645;-71
2023/06/08 10:04:53;;;;;;;5.05;4.55;;;25.40;99.90;;;;;;5057225;28;20279;-69
2023/06/08 10:07:24;;;;;;;5.45;4.95;;;25.50;99.90;;;;;;5057777;28;20248;-71
2023/06/08 10:09:59;;;;;;;5.38;4.47;;;25.80;99.90;;;;;;5048837;28;20281;-69
2023/06/08 10:12:30;;;;;;;4.75;4.30;;;26.00;99.90;;;;;;5054440;28;20203;-70
2023/06/08 10:14:58;;;;;;;5.10;4.70;;;26.10;99.90;;;;;;5062932;28;20321;-69
2023/06/08 10:17:27;;;;;;;4.78;4.38;;;26.00;99.90;;;;;;5058292;28;20217;-70
2023/06/08 10:19:54;;;;;;;4.80;4.40;;;25.70;99.90;;;;;;5054588;28;20199;-70
2023/06/08 10:22:21;;;;;;;4.43;3.92;;;25.80;99.90;;;;;;5056549;28;20620;-70
2023/06/08 10:24:50;;;;;;;4.28;3.88;;;26.10;99.90;;;;;;5059484;28;20279;-70
2023/06/08 10:27:32;;;;;;;4.05;3.75;;;26.50;99.90;;;;;;5053429;28;20248;-70
2023/06/08 10:30:03;;;;;;;5.05;4.60;;;26.50;99.90;;;;;;5056481;28;20195;-69
2023/06/08 10:32:34;;;;;;;4.60;4.20;;;26.30;99.90;;;;;;5055583;28;20268;-69
2023/06/08 10:35:05;;;;;;;4.38;4.07;;;26.40;99.90;;;;;;5055018;28;20225;-70
2023/06/08 10:37:33;;;;;;;4.63;4.22;;;26.50;99.90;;;;;;5030280;28;20584;-70
2023/06/08 10:40:01;;;;;;;4.50;4.13;;;26.60;99.90;;;;;;5060261;28;20294;-70
2023/06/08 10:42:29;;;;;;;4.40;4.00;;;26.70;99.90;;;;;;5056143;28;20299;-70
2023/06/08 10:44:57;;;;;;;5.57;5.07;;;26.60;99.90;;;;;;5054736;28;20229;-70
2023/06/08 10:47:25;;;;;;;4.95;4.55;;;26.80;99.90;;;;;;5056358;28;20194;-69
2023/06/08 10:49:58;;;;;;;5.10;4.68;;;26.60;99.90;;;;;;5058849;28;20261;-69
2023/06/08 10:52:26;;;;;;;4.78;4.38;;;26.60;99.90;;;;;;5047355;28;20206;-70
2023/06/08 10:54:57;;;;;;;5.00;4.60;;;26.60;99.90;;;;;;5042332;28;20308;-70
2023/06/08 10:57:42;;;;;;;5.05;4.65;;;26.90;99.90;;;;;;5043538;28;20228;-70
2023/06/08 11:00:44;;;;;;;5.10;4.70;;;26.90;99.90;;;;;;5043372;28;20256;-69
2023/06/08 11:03:17;;;;;;;4.60;4.20;;;27.00;99.90;;;;;;5060396;28;20226;-69
2023/06/08 11:05:49;;;;;;;5.30;4.55;;;27.00;99.90;;;;;;5055107;28;20672;-70
2023/06/08 11:08:16;;;;;;;5.07;4.55;;;26.90;99.90;;;;;;5030624;28;20206;-70
2023/06/08 11:10:47;;;;;;;4.60;4.20;;;27.10;99.90;;;;;;5051762;28;20210;-70
2023/06/08 11:13:17;;;;;;;4.20;3.85;;;27.30;99.90;;;;;;5058342;28;20225;-70
2023/06/08 11:15:46;;;;;;;4.47;4.18;;;27.50;99.90;;;;;;5042076;28;20784;-70
2023/06/08 11:18:14;;;;;;;3.22;3.03;;;27.50;99.90;;;;;;5055597;28;20198;-69
2023/06/08 11:20:42;;;;;;;3.78;2.88;;;27.50;99.90;;;;;;5053323;28;20253;-70
2023/06/08 11:23:11;;;;;;;3.10;2.80;;;27.50;99.90;;;;;;5055002;28;20253;-70
2023/06/08 11:25:39;;;;;;;2.92;2.72;;;27.60;99.90;;;;;;5057573;28;20285;-70
2023/06/08 11:28:08;;;;;;;3.17;2.80;;;27.60;99.90;;;;;;5036056;28;20209;-70
2023/06/08 11:30:39;;;;;;;3.10;2.80;;;27.70;99.90;;;;;;5053792;28;20215;-70
2023/06/08 11:33:07;;;;;;;4.00;3.10;;;27.60;99.90;;;;;;5054211;28;20290;-71
2023/06/08 11:35:35;;;;;;;2.80;2.60;;;27.80;99.90;;;;;;5053587;28;20232;-71
2023/06/08 11:38:03;;;;;;;2.88;2.67;;;28.00;99.90;;;;;;5056882;28;20225;-71
2023/06/08 11:40:31;;;;;;;3.03;2.83;;;28.00;99.90;;;;;;5057330;28;20244;-71
2023/06/08 11:43:00;;;;;;;3.55;3.25;;;28.10;99.90;;;;;;5040889;28;20245;-73
2023/06/08 11:45:28;;;;;;;3.03;2.83;;;28.10;99.90;;;;;;5054537;28;20218;-72
2023/06/08 11:47:57;;;;;;;3.42;3.20;;;28.10;99.90;;;;;;5061298;28;20237;-72
2023/06/08 11:50:24;;;;;;;3.13;2.92;;;28.00;99.90;;;;;;5057445;28;20205;-72
2023/06/08 11:52:52;;;;;;;3.20;2.90;;;28.00;99.90;;;;;;5061678;28;20228;-71
2023/06/08 11:55:22;;;;;;;3.35;3.15;;;28.10;99.90;;;;;;5059664;28;20341;-74
2023/06/08 11:57:55;;;;;;;3.85;3.17;;;28.20;99.90;;;;;;5036092;28;20206;-72
2023/06/08 12:00:24;;;;;;;4.50;3.28;;;28.00;99.90;;;;;;5041004;28;20252;-72
2023/06/08 12:02:52;;;;;;;3.45;3.15;;;27.60;99.90;;;;;;5060811;28;20218;-72
2023/06/08 12:05:24;;;;;;;3.20;2.65;;;27.30;99.90;;;;;;5058283;28;20221;-76
2023/06/08 12:07:56;;;;;;;3.17;2.97;;;26.90;99.90;;;;;;5058445;28;20289;-73
2023/06/08 12:10:24;;;;;;;3.63;3.33;;;26.70;99.90;;;;;;5057349;28;20293;-72
2023/06/08 12:12:51;;;;;;;3.97;3.00;;;26.50;99.90;;;;;;5056881;28;20643;-73
2023/06/08 12:15:19;;;;;;;3.30;2.90;;;26.40;99.90;;;;;;5056916;28;20309;-73
2023/06/08 12:17:46;;;;;;;3.83;3.13;;;26.20;99.90;;;;;;5035556;28;20749;-72
2023/06/08 12:20:18;;;;;;;3.72;2.72;;;26.20;99.90;;;;;;5052227;28;20290;-73
2023/06/08 12:22:46;;;;;;;4.20;3.42;;;26.40;99.90;;;;;;5045678;28;20259;-72
2023/06/08 12:25:13;;;;;;;3.63;3.22;;;26.70;99.90;;;;;;5052854;28;20225;-73
2023/06/08 12:27:42;;;;;;;3.50;3.17;;;26.90;99.90;;;;;;5058317;28;20288;-74
2023/06/08 12:30:09;;;;;;;3.60;3.30;;;26.90;99.90;;;;;;5056703;28;20213;-72
2023/06/08 12:32:38;;;;;;;4.18;3.10;;;26.70;99.90;;;;;;5055940;28;20293;-73
2023/06/08 12:35:06;;;;;;;3.67;3.38;;;26.30;99.90;;;;;;5042678;28;20269;-73
2023/06/08 12:37:33;;;;;;;3.33;3.03;;;25.90;99.90;;;;;;5044045;28;20247;-73
2023/06/08 12:40:05;;;;;;;3.05;2.85;;;25.60;99.90;;;;;;5061343;28;20301;-72
2023/06/08 12:42:33;;;;;;;3.00;2.80;;;25.40;99.90;;;;;;5058075;28;20202;-73
2023/06/08 12:45:01;;;;;;;3.50;3.20;;;25.40;99.90;;;;;;5057253;28;20214;-73
2023/06/08 12:47:28;;;;;;;3.85;3.15;;;25.50;99.90;;;;;;5054885;28;20686;-75
2023/06/08 12:49:56;;;;;;;2.88;2.67;;;25.50;99.90;;;;;;5053048;28;20210;-74
2023/06/08 12:52:23;;;;;;;3.15;2.95;;;25.50;99.90;;;;;;5056035;28;20298;-74
2023/06/08 12:54:50;;;;;;;3.25;2.95;;;25.50;99.90;;;;;;5052482;28;20277;-74
2023/06/08 12:57:19;;;;;;;2.90;2.70;;;25.50;99.90;;;;;;5038782;28;20892;-74